createdAt,value
2016-04-20T08:27:14.125Z,37.99
2016-04-20T08:28:14.097Z,38.54
2016-04-20T08:29:14.083Z,39.01
2016-04-20T08:30:14.055Z,39.28
2016-04-20T08:31:14.058Z,40.14
2016-04-20T08:32:14.013Z,40.14
2016-04-20T08:33:14.016Z,39.83
2016-04-20T08:34:13.988Z,40.21
2016-04-20T08:35:13.974Z,39.14
2016-04-20T08:36:13.946Z,37.93
2016-04-20T08:37:13.933Z,37.47
2016-04-20T08:38:13.935Z,36.42
2016-04-20T08:39:13.892Z,36.98
2016-04-20T08:40:13.879Z,36.59
2016-04-20T08:41:13.866Z,37.82
2016-04-20T08:42:13.853Z,38.3
2016-04-20T08:43:13.871Z,38.78
2016-04-20T08:44:13.796Z,40.19
2016-04-20T08:45:13.799Z,40.19
2016-04-20T08:46:13.770Z,41.15
2016-04-20T08:47:13.757Z,41.7
2016-04-20T08:48:13.729Z,42.37
2016-04-20T08:49:13.701Z,42.18
2016-04-20T08:50:13.687Z,42.25
2016-04-20T08:51:13.675Z,42.16
2016-04-20T08:52:13.661Z,43.5
2016-04-20T08:53:13.648Z,43.5
2016-04-20T08:54:13.604Z,43.21
2016-04-20T08:55:13.606Z,43.21
2016-04-20T08:56:13.578Z,42.25
2016-04-20T08:57:13.549Z,43.02
2016-04-20T08:58:13.522Z,43.48
2016-04-20T08:59:13.524Z,44.81
2016-04-20T09:00:13.495Z,44.15
2016-04-20T09:01:13.483Z,43.57
2016-04-20T09:02:13.454Z,43.29
2016-04-20T09:03:13.425Z,43.38
2016-04-20T09:04:13.396Z,44.22
2016-04-20T09:05:13.383Z,44.31
2016-04-20T09:06:13.370Z,44.22
2016-04-20T09:07:13.343Z,43.93
2016-04-20T09:08:13.313Z,44.02
2016-04-20T09:09:13.301Z,46.13
2016-04-20T09:10:13.272Z,46.99
2016-04-20T09:11:13.104Z,45.08
2016-04-20T09:12:13.246Z,44.02
2016-04-20T09:13:13.218Z,44.34
2016-04-20T09:14:13.190Z,43.76
2016-04-20T09:15:13.160Z,43.57
2016-04-20T09:16:13.148Z,44.91
2016-04-20T09:17:13.134Z,46.44
2016-04-20T09:18:13.106Z,46.15
2016-04-20T09:19:13.093Z,46.92
2016-04-20T09:20:13.065Z,46.8
2016-04-20T09:21:13.051Z,45.75
2016-04-20T09:22:13.017Z,46.03
2016-04-20T09:23:12.994Z,47.27
2016-04-20T09:24:12.981Z,47.18
2016-04-20T09:25:12.952Z,46.61
2016-04-20T09:26:12.939Z,47.47
2016-04-20T09:27:12.910Z,47.27
2016-04-20T09:28:12.898Z,46.61
2016-04-20T09:29:12.901Z,46.13
2016-04-20T09:30:12.857Z,44.58
2016-04-20T09:31:12.827Z,45.15
2016-04-20T09:32:12.815Z,45.15
2016-04-20T09:33:12.786Z,45.63
2016-04-20T09:34:12.789Z,46.03
2016-04-20T09:35:12.745Z,45.37
2016-04-20T09:36:12.715Z,45.37
2016-04-20T09:37:12.718Z,45.37
2016-04-20T09:38:12.689Z,44.51
2016-04-20T09:39:12.662Z,44.12
2016-04-20T09:40:12.648Z,45.46
2016-04-20T09:41:12.620Z,45.17
2016-04-20T09:42:12.592Z,44.41
2016-04-20T09:43:12.578Z,43.95
2016-04-20T09:44:12.550Z,44.34
2016-04-20T09:45:12.536Z,44.98
2016-04-20T09:46:12.524Z,45.27
2016-04-20T09:47:12.495Z,45.27
2016-04-20T09:48:12.467Z,44.79
2016-04-20T09:49:12.455Z,44.89
2016-04-20T09:50:12.425Z,44.7
2016-04-20T09:51:12.413Z,45.27
2016-04-20T09:52:12.383Z,45.94
2016-04-20T09:53:12.355Z,45.94
2016-04-20T09:54:12.343Z,44.51
2016-04-20T09:55:12.330Z,45.75
2016-04-20T09:56:12.301Z,44.41
2016-04-20T09:57:12.288Z,44.02
2016-04-20T09:58:12.260Z,45.39
2016-04-20T09:59:12.231Z,45.94
2016-04-20T10:00:12.218Z,46.25
2016-04-20T10:01:12.189Z,46.25
2016-04-20T10:02:12.160Z,46.25
2016-04-20T10:03:12.148Z,46.25
2016-04-20T10:04:12.119Z,46.92
2016-04-20T10:05:12.106Z,45.77
2016-04-20T10:06:12.187Z,46.15
2016-04-20T10:07:12.064Z,45.94
2016-04-20T10:08:12.036Z,46.22
2016-04-20T10:09:12.023Z,47.08
2016-04-20T10:10:12.011Z,48.23
2016-04-20T10:11:11.967Z,48.39
2016-04-20T10:12:11.953Z,46.87
2016-04-20T10:13:11.940Z,45.82
2016-04-20T10:14:11.912Z,46.3
2016-04-20T10:15:11.900Z,45.53
2016-04-20T10:16:11.870Z,46.87
2016-04-20T10:17:11.842Z,48.3
2016-04-20T10:18:11.829Z,48.97
2016-04-20T10:19:11.816Z,47.44
2016-04-20T10:20:11.788Z,48.11
2016-04-20T10:21:11.775Z,48.21
2016-04-20T10:22:11.730Z,47.16
2016-04-20T10:23:11.717Z,46.68
2016-04-20T10:24:11.689Z,47.73
2016-04-20T10:25:11.676Z,46.77
2016-04-20T10:26:11.647Z,46.3
2016-04-20T10:27:11.634Z,45.82
2016-04-20T10:28:11.605Z,45.72
2016-04-20T10:29:11.593Z,47.16
2016-04-20T10:30:11.549Z,47.06
2016-04-20T10:31:11.535Z,47.16
2016-04-20T10:32:11.523Z,45.25
2016-04-20T10:33:11.494Z,45.34
2016-04-20T10:34:11.482Z,45.34
2016-04-20T10:35:11.579Z,45.92
2016-04-20T10:36:11.424Z,46.77
2016-04-20T10:37:11.426Z,46.97
2016-04-20T10:38:11.382Z,46.77
2016-04-20T10:39:11.370Z,46.11
2016-04-20T10:40:11.341Z,44.96
2016-04-20T10:41:11.313Z,46.01
2016-04-20T10:42:11.143Z,44.96
2016-04-20T10:43:11.271Z,44.77
2016-04-20T10:44:11.242Z,44.96
2016-04-20T10:45:11.230Z,45.34
2016-04-20T10:46:11.201Z,46.2
2016-04-20T10:47:11.189Z,46.68
2016-04-20T10:48:11.159Z,45.15
2016-04-20T10:49:11.147Z,45.17
2016-04-20T10:50:11.133Z,45.53
2016-04-20T10:51:11.089Z,47.37
2016-04-20T10:52:11.077Z,46.51
2016-04-20T10:53:11.063Z,46.01
2016-04-20T10:54:11.050Z,45.92
2016-04-20T10:55:11.007Z,45.92
2016-04-20T10:56:10.994Z,46.68
2016-04-20T10:57:10.965Z,46.39
2016-04-20T10:58:10.936Z,45.15
2016-04-20T10:59:10.938Z,44.58
2016-04-20T11:00:10.895Z,44.77
2016-04-20T11:01:10.866Z,46.77
2016-04-20T11:02:10.854Z,47.25
2016-04-20T11:03:10.825Z,46.11
2016-04-20T11:04:10.812Z,44.87
2016-04-20T11:05:10.846Z,45.17
2016-04-20T11:06:10.770Z,45.25
2016-04-20T11:07:10.742Z,44.87
2016-04-20T11:08:10.713Z,46.97
2016-04-20T11:09:10.701Z,47.18
2016-04-20T11:10:10.672Z,48.04
2016-04-20T11:11:10.643Z,48.11
2016-04-20T11:12:10.631Z,46.68
2016-04-20T11:13:10.602Z,45.94
2016-04-20T11:14:10.589Z,47.37
2016-04-20T11:15:10.561Z,46.7
2016-04-20T11:16:10.531Z,46.61
2016-04-20T11:17:10.519Z,45.37
2016-04-20T11:18:10.490Z,44.98
2016-04-20T11:19:10.462Z,45.65
2016-04-20T11:20:10.450Z,45.27
2016-04-20T11:21:10.420Z,45.08
2016-04-20T11:22:10.408Z,44.51
2016-04-20T11:23:10.378Z,44.6
2016-04-20T11:24:10.756Z,45.08
2016-04-20T11:25:11.088Z,45.08
2016-04-20T11:26:10.324Z,45.75
2016-04-20T11:27:10.296Z,45.37
2016-04-20T11:28:10.282Z,45.2
2016-04-20T11:29:10.254Z,44.72
2016-04-20T11:30:10.226Z,45.94
2016-04-20T11:31:10.213Z,45.94
2016-04-20T11:32:10.200Z,45.65
2016-04-20T11:33:10.156Z,45.65
2016-04-20T11:34:10.143Z,47.75
2016-04-20T11:35:10.115Z,46.99
2016-04-20T11:36:10.101Z,45.37
2016-04-20T11:37:10.073Z,45.27
2016-04-20T11:38:10.044Z,44.02
2016-04-20T11:39:10.047Z,44.7
2016-04-20T11:40:10.003Z,45.75
2016-04-20T11:41:09.990Z,45.27
2016-04-20T11:42:09.961Z,45.37
2016-04-20T11:43:09.948Z,45.17
2016-04-20T11:44:09.919Z,44.79
2016-04-20T11:45:09.907Z,44.51
2016-04-20T11:46:09.878Z,43.17
2016-04-20T11:47:09.849Z,43.84
2016-04-20T11:48:09.837Z,44.7
2016-04-20T11:49:09.808Z,46.89
2016-04-20T11:50:09.780Z,46.87
2016-04-20T11:51:09.767Z,47.75
2016-04-20T11:52:09.738Z,47.08
2016-04-20T11:53:09.725Z,42.97
2016-04-20T11:54:09.697Z,43.84
2016-04-20T11:55:09.683Z,44.41
2016-04-20T11:56:09.655Z,44.41
2016-04-20T11:57:09.641Z,44.89
2016-04-20T11:58:09.613Z,44.98
2016-04-20T11:59:09.586Z,44.51
2016-04-20T12:00:09.572Z,44.89
2016-04-20T12:01:09.560Z,46.8
2016-04-20T12:02:09.515Z,46.99
2016-04-20T12:03:09.501Z,45.84
2016-04-20T12:04:09.488Z,45.08
2016-04-20T12:05:09.461Z,45.94
2016-04-20T12:06:09.432Z,47.94
2016-04-20T12:07:09.419Z,47.85
2016-04-20T12:08:09.390Z,46.13
2016-04-20T12:09:09.362Z,46.32
2016-04-20T12:10:09.348Z,45.84
2016-04-20T12:11:09.320Z,45.84
2016-04-20T12:12:09.308Z,45.27
2016-04-20T12:13:09.279Z,45.94
2016-04-20T12:14:09.266Z,46.03
2016-04-20T12:15:09.237Z,45.17
2016-04-20T12:16:09.224Z,44.98
2016-04-20T12:17:09.196Z,44.98
2016-04-20T12:18:09.184Z,45.37
2016-04-20T12:19:09.154Z,48.33
2016-04-20T12:20:09.126Z,45.65
2016-04-20T12:21:09.097Z,46.03
2016-04-20T12:22:09.084Z,45.94
2016-04-20T12:23:09.056Z,47.01
2016-04-20T12:24:09.042Z,47.08
2016-04-20T12:25:09.014Z,46.51
2016-04-20T12:26:09.001Z,45.77
2016-04-20T12:27:08.972Z,44.89
2016-04-20T12:28:08.975Z,44.22
2016-04-20T12:29:08.916Z,44.51
2016-04-20T12:30:08.902Z,44.51
2016-04-20T12:31:08.891Z,46.22
2016-04-20T12:32:08.860Z,44.22
2016-04-20T12:33:08.832Z,44.31
2016-04-20T12:34:08.819Z,44.41
2016-04-20T12:35:08.791Z,43.17
2016-04-20T12:36:08.763Z,43.48
2016-04-20T12:37:08.750Z,43.55
2016-04-20T12:38:08.721Z,44.51
2016-04-20T12:39:08.708Z,43.74
2016-04-20T12:40:08.696Z,43.17
2016-04-20T12:41:08.683Z,44.02
2016-04-20T12:42:08.638Z,42.5
2016-04-20T12:43:08.625Z,41.55
2016-04-20T12:44:08.596Z,42.04
2016-04-20T12:45:08.584Z,41.66
2016-04-20T12:46:08.556Z,41.38
2016-04-20T12:47:08.527Z,39.73
2016-04-20T12:48:08.498Z,41.28
2016-04-20T12:49:08.485Z,42.61
2016-04-20T12:50:08.456Z,42.31
2016-04-20T12:51:08.444Z,42.31
2016-04-20T12:52:08.415Z,43.17
2016-04-20T12:53:08.402Z,41.95
2016-04-20T12:54:08.373Z,40.7
2016-04-20T12:55:08.345Z,41.28
2016-04-20T12:56:08.333Z,41.28
2016-04-20T12:57:08.319Z,41.85
2016-04-20T12:58:08.291Z,43.19
2016-04-20T12:59:08.278Z,44.15
2016-04-20T13:00:08.249Z,42.24
2016-04-20T13:01:08.220Z,43
2016-04-20T13:02:08.191Z,45.29
2016-04-20T13:03:08.180Z,46.15
2016-04-20T13:04:08.166Z,45.58
2016-04-20T13:05:08.122Z,44.34
2016-04-20T13:06:08.124Z,43.66
2016-04-20T13:07:08.080Z,44.24
2016-04-20T13:08:08.068Z,44.34
2016-04-20T13:09:08.039Z,44.91
2016-04-20T13:10:07.854Z,45.87
2016-04-20T13:11:07.997Z,44.15
2016-04-20T13:12:07.984Z,42.71
2016-04-20T13:13:07.956Z,43
2016-04-20T13:14:07.943Z,42.24
2016-04-20T13:15:07.915Z,42.14
2016-04-20T13:16:07.886Z,43
2016-04-20T13:17:07.873Z,41.75
2016-04-20T13:18:07.845Z,41.56
2016-04-20T13:19:07.815Z,41.95
2016-04-20T13:20:07.803Z,42.33
2016-04-20T13:21:07.775Z,41.75
2016-04-20T13:22:07.761Z,41.66
2016-04-20T13:23:07.733Z,41.95
2016-04-20T13:24:07.719Z,43.09
2016-04-20T13:25:07.691Z,43.86
2016-04-20T13:26:07.678Z,43.38
2016-04-20T13:27:07.650Z,43.95
2016-04-20T13:28:07.637Z,45.29
2016-04-20T13:29:07.608Z,43.38
2016-04-20T13:30:07.580Z,41.85
2016-04-20T13:31:07.566Z,40.03
2016-04-20T13:32:07.555Z,39.18
2016-04-20T13:33:07.525Z,40.61
2016-04-20T13:34:07.497Z,39.94
2016-04-20T13:35:07.483Z,40.25
2016-04-20T13:36:07.455Z,40.63
2016-04-20T13:37:07.426Z,41.3
2016-04-20T13:38:07.414Z,40.53
2016-04-20T13:39:07.385Z,39.96
2016-04-20T13:40:07.372Z,39.29
2016-04-20T13:41:07.344Z,38.91
2016-04-20T13:42:07.331Z,38.24
2016-04-20T13:43:07.301Z,38.71
2016-04-20T13:44:07.290Z,40.44
2016-04-20T13:45:07.260Z,39.2
2016-04-20T13:46:07.263Z,38.91
2016-04-20T13:47:07.219Z,38.24
2016-04-20T13:48:07.191Z,39
2016-04-20T13:49:07.178Z,38.91
2016-04-20T13:50:07.149Z,39.2
2016-04-20T13:51:07.120Z,40.53
2016-04-20T13:52:07.109Z,38.71
2016-04-20T13:53:07.095Z,38.34
2016-04-20T13:54:07.066Z,37.95
2016-04-20T13:55:07.053Z,38.71
2016-04-20T13:56:07.025Z,38.12
2016-04-20T13:57:07.011Z,37.48
2016-04-20T13:58:06.984Z,37.19
2016-04-20T13:59:06.955Z,35.94
2016-04-20T14:00:06.926Z,36.61
2016-04-20T14:01:06.914Z,36.8
2016-04-20T14:02:06.900Z,36.43
2016-04-20T14:03:06.872Z,35.66
2016-04-20T14:04:06.843Z,35.37
2016-04-20T14:05:07.611Z,34.89
2016-04-20T14:06:06.660Z,35.18
2016-04-20T14:07:06.789Z,35.66
2016-04-20T14:08:06.776Z,35.37
2016-04-20T14:09:06.747Z,35.37
2016-04-20T14:10:06.719Z,34.51
2016-04-20T14:11:06.705Z,34.51
2016-04-20T14:12:06.677Z,35.37
2016-04-20T14:13:06.649Z,35.66
2016-04-20T14:14:06.652Z,36.04
2016-04-20T14:15:06.607Z,36.8
2016-04-20T14:16:06.593Z,37.09
2016-04-20T14:17:06.581Z,37.09
2016-04-20T14:18:06.568Z,36.9
2016-04-20T14:19:06.524Z,37.48
2016-04-20T14:20:06.496Z,38.34
2016-04-20T14:21:06.514Z,38.34
2016-04-20T14:22:06.471Z,38.43
2016-04-20T14:23:06.457Z,38.24
2016-04-20T14:24:06.413Z,38.14
2016-04-20T14:25:06.401Z,36.99
2016-04-20T14:26:06.388Z,37.19
2016-04-20T14:27:06.359Z,38.05
2016-04-20T14:28:06.346Z,38.71
2016-04-20T14:29:06.334Z,37.09
2016-04-20T14:30:06.305Z,36.61
2016-04-20T14:31:06.276Z,37.09
2016-04-20T14:32:06.262Z,36.33
2016-04-20T14:33:06.234Z,35.75
2016-04-20T14:34:06.206Z,36.71
2016-04-20T14:35:06.193Z,38.14
2016-04-20T14:36:06.164Z,38.24
2016-04-20T14:37:06.151Z,38.93
2016-04-20T14:38:06.123Z,39
2016-04-20T14:39:06.111Z,40.65
2016-04-20T14:40:06.081Z,39.03
2016-04-20T14:41:06.053Z,38.17
2016-04-20T14:42:06.040Z,38.17
2016-04-20T14:43:06.011Z,38.35
2016-04-20T14:44:05.999Z,39.22
2016-04-20T14:45:05.970Z,38.74
2016-04-20T14:46:05.958Z,38.83
2016-04-20T14:47:05.928Z,39.1
2016-04-20T14:48:05.916Z,39.89
2016-04-20T14:49:05.888Z,39.03
2016-04-20T14:50:07.405Z,39.31
2016-04-20T14:51:06.783Z,38.26
2016-04-20T14:52:05.832Z,37.97
2016-04-20T14:53:05.804Z,38.26
2016-04-20T14:54:05.791Z,38.74
2016-04-20T14:55:05.763Z,39.4
2016-04-20T14:56:05.734Z,39.22
2016-04-20T14:57:05.721Z,39.31
2016-04-20T14:58:05.708Z,39.4
2016-04-20T14:59:05.680Z,39.22
2016-04-20T15:00:05.667Z,39.69
2016-04-20T15:01:05.638Z,39.4
2016-04-20T15:02:05.609Z,39.12
2016-04-20T15:03:05.596Z,39.98
2016-04-20T15:04:05.583Z,39.12
2016-04-20T15:05:05.555Z,38.93
2016-04-20T15:06:05.526Z,39
2016-04-20T15:07:05.514Z,39.22
2016-04-20T15:08:05.485Z,40.26
2016-04-20T15:09:05.473Z,41.7
2016-04-20T15:10:05.444Z,43.14
2016-04-20T15:11:05.431Z,42.08
2016-04-20T15:12:05.417Z,40.46
2016-04-20T15:13:05.389Z,40.75
2016-04-20T15:14:05.360Z,41.32
2016-04-20T15:15:05.347Z,42.08
2016-04-20T15:16:05.335Z,41.99
2016-04-20T15:17:05.305Z,41.99
2016-04-20T15:18:05.277Z,41.22
2016-04-20T15:19:05.249Z,41.61
2016-04-20T15:20:05.236Z,41.41
2016-04-20T15:21:05.223Z,41.41
2016-04-20T15:22:05.194Z,40.26
2016-04-20T15:23:05.182Z,40.55
2016-04-20T15:24:05.152Z,40.36
2016-04-20T15:25:05.124Z,40.55
2016-04-20T15:26:05.112Z,40.17
2016-04-20T15:27:05.082Z,39.31
2016-04-20T15:28:05.071Z,40.08
2016-04-20T15:29:05.057Z,40.17
2016-04-20T15:30:05.044Z,40.26
2016-04-20T15:31:05.000Z,40.26
2016-04-20T15:32:04.987Z,40.08
2016-04-20T15:33:04.974Z,40.55
2016-04-20T15:34:04.945Z,40.55
2016-04-20T15:35:04.932Z,40.17
2016-04-20T15:36:04.908Z,39.98
2016-04-20T15:37:04.880Z,39.79
2016-04-20T15:38:04.867Z,40.36
2016-04-20T15:39:04.838Z,41.41
2016-04-20T15:40:04.826Z,42.27
2016-04-20T15:41:04.797Z,42.18
2016-04-20T15:42:04.769Z,41.51
2016-04-20T15:43:04.756Z,40.26
2016-04-20T15:44:04.728Z,39.98
2016-04-20T15:45:04.714Z,40.55
2016-04-20T15:46:04.702Z,40.75
2016-04-20T15:47:04.673Z,40.94
2016-04-20T15:48:04.661Z,39.98
2016-04-20T15:49:04.632Z,40.65
2016-04-20T15:50:04.619Z,40.84
2016-04-20T15:51:04.590Z,41.32
2016-04-20T15:52:04.561Z,39.79
2016-04-20T15:53:04.549Z,39.89
2016-04-20T15:54:04.520Z,39.31
2016-04-20T15:55:04.507Z,39.89
2016-04-20T15:56:04.493Z,40.75
2016-04-20T15:57:04.465Z,40.17
2016-04-20T15:58:04.474Z,40.75
2016-04-20T15:59:04.502Z,40.84
2016-04-20T16:00:04.532Z,39.89
2016-04-20T16:01:04.544Z,40.26
2016-04-20T16:02:04.557Z,40.84
2016-04-20T16:03:04.567Z,40.08
2016-04-20T16:04:04.571Z,39.89
2016-04-20T16:05:04.549Z,40.17
2016-04-20T16:06:48.645Z,40.36
2016-04-20T16:07:04.520Z,40.44
2016-04-20T16:08:04.519Z,41.68
2016-04-20T16:09:04.339Z,41.3
2016-04-20T16:10:04.317Z,41.68
2016-04-20T16:11:04.465Z,40.34
2016-04-20T16:12:04.443Z,39.98
2016-04-20T16:13:04.433Z,39.98
2016-04-20T16:14:04.407Z,40.15
2016-04-20T16:15:04.396Z,40.34
2016-04-20T16:16:04.385Z,40.63
2016-04-20T16:17:04.357Z,41.3
2016-04-20T16:18:04.331Z,41.3
2016-04-20T16:19:04.319Z,41.58
2016-04-20T16:20:04.291Z,41.39
2016-04-20T16:21:04.279Z,41.68
2016-04-20T16:22:04.251Z,41.58
2016-04-20T16:23:04.240Z,41.39
2016-04-20T16:24:04.210Z,41.97
2016-04-20T16:25:04.198Z,42.54
2016-04-20T16:26:04.185Z,41.39
2016-04-20T16:27:04.141Z,41.97
2016-04-20T16:28:04.129Z,42.93
2016-04-20T16:29:04.100Z,42.83
2016-04-20T16:30:04.088Z,42.44
2016-04-20T16:31:04.075Z,41.39
2016-04-20T16:32:04.061Z,40.06
2016-04-20T16:33:04.018Z,40.34
2016-04-20T16:34:04.004Z,41.39
2016-04-20T16:35:03.976Z,41.68
2016-04-20T16:36:03.947Z,42.35
2016-04-20T16:37:03.934Z,43.02
2016-04-20T16:38:03.921Z,42.93
2016-04-20T16:39:03.893Z,43.21
2016-04-20T16:40:03.865Z,42.35
2016-04-20T16:41:03.851Z,43.02
2016-04-20T16:42:03.823Z,43.12
2016-04-20T16:43:03.810Z,42.25
2016-04-20T16:44:03.812Z,43.79
2016-04-20T16:45:03.784Z,42.73
2016-04-20T16:46:03.756Z,42.9
2016-04-20T16:47:03.711Z,42.81
2016-04-20T16:48:03.698Z,42.64
2016-04-20T16:49:03.686Z,43.38
2016-04-20T16:50:03.657Z,44.05
2016-04-20T16:51:03.629Z,43.95
2016-04-20T16:52:03.615Z,44.53
2016-04-20T16:53:03.603Z,44.53
2016-04-20T16:54:03.574Z,45.67
2016-04-20T16:55:03.545Z,44.24
2016-04-20T16:56:03.533Z,44.43
2016-04-20T16:57:03.503Z,44.34
2016-04-20T16:58:03.491Z,45.01
2016-04-20T16:59:03.463Z,45.58
2016-04-20T17:00:03.450Z,46.06
2016-04-20T17:01:03.421Z,46.15
2016-04-20T17:02:03.408Z,45.39
2016-04-20T17:03:03.379Z,44.91
2016-04-20T17:04:03.366Z,44.34
2016-04-20T17:05:03.338Z,44.81
2016-04-20T17:06:03.310Z,45.2
2016-04-20T17:07:03.280Z,45.87
2016-04-20T17:08:03.299Z,46.15
2016-04-20T17:09:03.255Z,46.03
2016-04-20T17:10:03.226Z,47.18
2016-04-20T17:11:03.198Z,47.47
2016-04-20T17:12:03.185Z,46.99
2016-04-20T17:13:03.157Z,47.08
2016-04-20T17:14:03.143Z,46.61
2016-04-20T17:15:03.131Z,47.27
2016-04-20T17:16:03.102Z,46.8
2016-04-20T17:17:03.074Z,47.75
2016-04-20T17:18:03.045Z,47.94
2016-04-20T17:19:03.031Z,47.94
2016-04-20T17:20:03.019Z,47.37
2016-04-20T17:21:02.990Z,46.42
2016-04-20T17:22:02.962Z,47.08
2016-04-20T17:23:02.934Z,47.27
2016-04-20T17:24:02.920Z,48.13
2016-04-20T17:25:02.892Z,47.75
2016-04-20T17:26:02.864Z,48.04
2016-04-20T17:27:02.850Z,47.27
2016-04-20T17:28:02.836Z,47.06
2016-04-20T17:29:02.808Z,47.94
2016-04-20T17:30:02.781Z,46.97
2016-04-20T17:31:02.767Z,47.37
2016-04-20T17:32:02.754Z,46.77
2016-04-20T17:33:02.726Z,46.39
2016-04-20T17:34:02.697Z,46.39
2016-04-20T17:35:02.685Z,45.72
2016-04-20T17:36:02.656Z,45.34
2016-04-20T17:37:02.674Z,45.72
2016-04-20T17:38:02.614Z,45.34
2016-04-20T17:39:02.585Z,46.2
2016-04-20T17:40:02.557Z,47.16
2016-04-20T17:41:02.544Z,46.2
2016-04-20T17:42:02.516Z,46.58
2016-04-20T17:43:02.488Z,46.87
2016-04-20T17:44:02.474Z,47.06
2016-04-20T17:45:02.446Z,47.82
2016-04-20T17:46:02.433Z,48.39
2016-04-20T17:47:02.404Z,47.92
2016-04-20T17:48:02.376Z,48.08
2016-04-20T17:49:02.362Z,47.92
2016-04-20T17:50:02.335Z,48.08
2016-04-20T17:51:02.321Z,48.08
2016-04-20T17:52:02.324Z,48.28
2016-04-20T17:53:02.108Z,48.18
2016-04-20T17:54:04.195Z,48.28
2016-04-20T17:55:02.229Z,48.18
2016-04-20T17:56:02.200Z,48.18
2016-04-20T17:57:02.046Z,47.42
2016-04-20T17:58:02.159Z,47.89
2016-04-20T17:59:02.145Z,47.89
2016-04-20T18:00:02.117Z,47.8
2016-04-20T18:01:02.088Z,47.8
2016-04-20T18:02:02.059Z,48.28
2016-04-20T18:03:02.031Z,48.75
2016-04-20T18:04:02.017Z,48.66
2016-04-20T18:05:01.990Z,48.75
2016-04-20T18:06:01.961Z,48.28
2016-04-20T18:07:01.806Z,48.35
2016-04-20T18:08:01.917Z,48.75
2016-04-20T18:09:01.906Z,48.63
2016-04-20T18:10:01.876Z,49.02
2016-04-20T18:11:01.847Z,49.13
2016-04-20T18:12:01.835Z,50.35
2016-04-20T18:13:01.806Z,49.87
2016-04-20T18:14:01.793Z,49.78
2016-04-20T18:15:01.764Z,49.87
2016-04-20T18:16:01.736Z,50.83
2016-04-20T18:17:01.712Z,50.35
2016-04-20T18:18:01.699Z,50.35
2016-04-20T18:19:01.670Z,50.16
2016-04-20T18:20:01.641Z,50.73
2016-04-20T18:21:01.613Z,51.02
2016-04-20T18:22:01.605Z,51.78
2016-04-20T18:23:01.576Z,51.12
2016-04-20T18:24:01.548Z,51.56
2016-04-20T18:25:01.519Z,51.37
2016-04-20T18:26:01.505Z,51.76
2016-04-20T18:27:01.478Z,52.23
2016-04-20T18:28:01.464Z,52.52
2016-04-20T18:29:01.436Z,52.23
2016-04-20T18:30:01.408Z,52.23
2016-04-20T18:31:01.379Z,52.52
2016-04-20T18:32:01.366Z,52.33
2016-04-20T18:33:01.338Z,52.33
2016-04-20T18:34:01.308Z,52.52
2016-04-20T18:35:01.296Z,53.09
2016-04-20T18:36:01.268Z,53.47
2016-04-20T18:37:01.255Z,53.95
2016-04-20T18:38:01.226Z,54.33
2016-04-20T18:39:01.197Z,53.56
2016-04-20T18:40:01.169Z,54.11
2016-04-20T18:41:01.157Z,53.73
2016-04-20T18:42:01.159Z,54.21
2016-04-20T18:43:01.115Z,53.83
2016-04-20T18:44:01.085Z,54.39
2016-04-20T18:45:01.057Z,54.21
2016-04-20T18:46:01.044Z,54.78
2016-04-20T18:47:01.048Z,54.68
2016-04-20T18:48:01.003Z,54.59
2016-04-20T18:49:00.959Z,54.59
2016-04-20T18:50:00.930Z,55.07
2016-04-20T18:51:00.901Z,55.16
2016-04-20T18:52:00.919Z,54.85
2016-04-20T18:53:00.860Z,55.9
2016-04-20T18:54:00.847Z,55.32
2016-04-20T18:55:00.819Z,55.32
2016-04-20T18:56:00.790Z,55.7
2016-04-20T18:57:00.761Z,55.32
2016-04-20T18:58:00.748Z,55.7
2016-04-20T18:59:00.736Z,56.18
2016-04-20T19:00:00.707Z,56.85
2016-04-20T19:01:00.679Z,56.56
2016-04-20T19:02:00.650Z,56.65
2016-04-20T19:03:00.621Z,56.75
2016-04-20T19:04:00.608Z,56.27
2016-04-20T19:05:00.580Z,56.46
2016-04-20T19:06:00.567Z,56.65
2016-04-20T19:07:00.555Z,57.04
2016-04-20T19:08:00.509Z,57.1
2016-04-20T19:09:00.465Z,58.15
2016-04-20T19:10:00.452Z,57.39
2016-04-20T19:11:00.440Z,57.2
2016-04-20T19:12:00.410Z,58.15
2016-04-20T19:13:00.383Z,58.15
2016-04-20T19:14:00.354Z,58.15
2016-04-20T19:15:00.326Z,58.25
2016-04-20T19:16:00.313Z,58.06
2016-04-20T19:17:00.284Z,58.72
2016-04-20T19:18:00.255Z,58.44
2016-04-20T19:19:00.226Z,59.86
2016-04-20T19:20:00.214Z,59.96
2016-04-20T19:21:00.185Z,59.96
2016-04-20T19:22:00.173Z,60.05
2016-04-20T19:23:00.128Z,59.96
2016-04-20T19:24:00.115Z,60.02
2016-04-20T19:25:00.086Z,59.83
2016-04-20T19:26:00.058Z,60.02
2016-04-20T19:27:00.045Z,59.83
2016-04-20T19:28:00.001Z,60.41
2016-04-20T19:28:59.988Z,60.6
2016-04-20T19:29:59.959Z,60.21
2016-04-20T19:30:59.931Z,60.6
2016-04-20T19:31:59.902Z,60.21
2016-04-20T19:32:59.890Z,60.88
2016-04-20T19:33:59.861Z,60.78
2016-04-20T19:34:59.832Z,60.41
2016-04-20T19:35:59.819Z,60.78
2016-04-20T19:36:59.791Z,60.69
2016-04-20T19:37:59.762Z,60.78
2016-04-20T19:38:59.750Z,61.07
2016-04-20T19:39:59.705Z,61.07
2016-04-20T19:40:59.693Z,61.16
2016-04-20T19:41:59.664Z,61.83
2016-04-20T19:42:59.651Z,61.16
2016-04-20T19:43:59.607Z,62.49
2016-04-20T19:44:59.593Z,62.12
2016-04-20T19:45:59.565Z,62.3
2016-04-20T19:46:59.537Z,61.83
2016-04-20T19:47:59.524Z,62.21
2016-04-20T19:48:59.495Z,62.49
2016-04-20T19:49:59.482Z,63.64
2016-04-20T19:50:59.438Z,62.97
2016-04-20T19:51:59.409Z,62.88
2016-04-20T19:52:59.381Z,63.45
2016-04-20T19:53:59.367Z,63.45
2016-04-20T19:54:59.339Z,63.73
2016-04-20T19:55:59.342Z,63.54
2016-04-20T19:56:59.282Z,63.73
2016-04-20T19:57:59.269Z,63.73
2016-04-20T19:58:59.241Z,63.83
2016-04-20T19:59:59.212Z,64.02
2016-04-20T20:00:59.184Z,64.31
2016-04-20T20:01:59.155Z,64.21
2016-04-20T20:02:59.142Z,64.11
2016-04-20T20:03:59.113Z,64.11
2016-04-20T20:04:59.086Z,63.92
2016-04-20T20:05:59.056Z,64.5
2016-04-20T20:06:59.028Z,64.59
2016-04-20T20:07:58.999Z,64.78
2016-04-20T20:08:58.986Z,64.78
2016-04-20T20:09:58.941Z,64.87
2016-04-20T20:10:58.929Z,65.35
2016-04-20T20:11:58.902Z,65.45
2016-04-20T20:12:58.887Z,65.16
2016-04-20T20:13:58.859Z,65.54
2016-04-20T20:14:58.830Z,65.06
2016-04-20T20:15:58.818Z,65.25
2016-04-20T20:16:58.774Z,65.25
2016-04-20T20:17:58.588Z,65.35
2016-04-20T20:18:58.732Z,65.16
2016-04-20T20:19:58.704Z,65.06
2016-04-20T20:20:58.675Z,65.35
2016-04-20T20:21:58.640Z,65.73
2016-04-20T20:22:58.714Z,65.25
2016-04-20T20:23:58.592Z,65.45
2016-04-20T20:24:58.578Z,65.73
2016-04-20T20:25:58.550Z,66.08
2016-04-20T20:26:58.521Z,66.27
2016-04-20T20:27:58.493Z,66.68
2016-04-20T20:28:58.480Z,66.27
2016-04-20T20:29:58.435Z,66.39
2016-04-20T20:30:58.423Z,67.07
2016-04-20T20:31:58.394Z,66.3
2016-04-20T20:32:58.366Z,66.59
2016-04-20T20:33:58.337Z,67.32
2016-04-20T20:34:58.308Z,67.03
2016-04-20T20:35:58.296Z,67.5
2016-04-20T20:36:58.266Z,67.32
2016-04-20T20:37:58.239Z,67.03
2016-04-20T20:38:58.210Z,67.6
2016-04-20T20:39:58.196Z,67.41
2016-04-20T20:40:58.152Z,67.32
2016-04-20T20:41:58.140Z,68.27
2016-04-20T20:42:58.111Z,67.69
2016-04-20T20:43:58.082Z,68.07
2016-04-20T20:44:58.054Z,68.07
2016-04-20T20:45:58.025Z,68.74
2016-04-20T20:46:58.013Z,68.07
2016-04-20T20:47:57.984Z,68.84
2016-04-20T20:48:57.955Z,68.65
2016-04-20T20:49:57.943Z,68.74
2016-04-20T20:50:57.945Z,68.93
2016-04-20T20:51:57.869Z,69.5
2016-04-20T20:52:57.841Z,69.02
2016-04-20T20:53:57.813Z,69.6
2016-04-20T20:54:57.800Z,69.31
2016-04-20T20:55:57.787Z,69.5
2016-04-20T20:56:57.758Z,69.5
2016-04-20T20:57:57.730Z,69.31
2016-04-20T20:58:57.685Z,69.41
2016-04-20T21:00:00.048Z,69.41
2016-04-20T21:00:57.660Z,69.5
2016-04-20T21:01:57.617Z,69.79
2016-04-20T21:02:57.587Z,70.07
2016-04-20T21:03:57.576Z,69.85
2016-04-20T21:04:57.531Z,69.94
2016-04-20T21:05:57.503Z,69.88
2016-04-20T21:06:57.489Z,69.98
2016-04-20T21:07:57.461Z,70.17
2016-04-20T21:08:57.431Z,70.32
2016-04-20T21:09:57.403Z,70.51
2016-04-20T21:10:57.376Z,70.89
2016-04-20T21:11:57.346Z,70.89
2016-04-20T21:12:57.317Z,70.23
2016-04-20T21:13:57.289Z,70.51
2016-04-20T21:14:57.277Z,70.61
2016-04-20T21:15:57.248Z,70.61
2016-04-20T21:16:57.219Z,71.18
2016-04-20T21:17:57.191Z,71.37
2016-04-20T21:18:57.163Z,71.37
2016-04-20T21:19:57.133Z,71.37
2016-04-20T21:20:57.136Z,71.94
2016-04-20T21:21:57.076Z,71.56